Friendsville, Tennessee
Current Conditions -  °F | °C
As of 2:53 AM on Friday 24 Oct 2014 (Local Time) from KTYS Reporting Station
Clear Clear  
Wind Chill: 43°   Ceiling: Unl
Heat Index: 48°   Visibility: 10mi
Dew Point: 43°   Wind: 10mph
Humidity: 83%   Direction: 30°NNE
Pressure: 30.08"   Gusts: NA
Location:  35.76°N, 84.14°W
Report Text: KTYS 240653Z 03009KT 10SM CLR 09/06 A3008 RMK AO2 SLP183 T00890061
Loading
Personal Weather Stations






























Interactive Weather Map
Tropical Storm Tracking
New forecast layout! Learn more

10-Day Weather Forecast

Advertisements
Track Severe Weather on mobile